createdAt,value
2019-04-10T00:01:40.535Z,35.97
2019-04-10T00:04:15.781Z,47.03
2019-04-10T00:06:48.002Z,30.83
2019-04-10T00:09:19.545Z,33.63
2019-04-10T00:11:53.418Z,33.30
2019-04-10T00:14:28.243Z,28.17
2019-04-10T00:17:00.938Z,49.50
2019-04-10T00:19:33.082Z,30.40
2019-04-10T00:22:06.294Z,32.43
2019-04-10T00:24:40.030Z,28.67
2019-04-10T00:27:16.685Z,34.87
2019-04-10T00:29:50.463Z,27.33
2019-04-10T00:32:23.735Z,29.40
2019-04-10T00:34:58.185Z,34.50
2019-04-10T00:37:32.400Z,29.00
2019-04-10T00:40:03.372Z,51.73
2019-04-10T00:42:34.871Z,30.47
2019-04-10T00:45:09.154Z,34.60
2019-04-10T00:47:46.187Z,48.70
2019-04-10T00:50:18.784Z,33.67
2019-04-10T00:52:49.094Z,32.03
2019-04-10T00:55:19.750Z,51.93
2019-04-10T00:57:54.610Z,32.40
2019-04-10T01:00:26.147Z,33.40
2019-04-10T01:02:58.857Z,32.17
2019-04-10T01:05:31.785Z,29.97
2019-04-10T01:08:04.854Z,27.83
2019-04-10T01:10:36.621Z,29.03
2019-04-10T01:13:08.372Z,49.00
2019-04-10T01:15:40.607Z,33.03
2019-04-10T01:18:11.149Z,34.27
2019-04-10T01:20:45.036Z,30.37
2019-04-10T01:23:18.571Z,57.33
2019-04-10T01:25:49.164Z,31.57
2019-04-10T01:28:21.310Z,29.73
2019-04-10T01:30:57.473Z,31.30
2019-04-10T01:33:28.416Z,48.23
2019-04-10T01:35:58.902Z,29.67
2019-04-10T01:38:29.853Z,28.70
2019-04-10T01:41:01.475Z,50.87
2019-04-10T01:43:35.123Z,31.13
2019-04-10T01:46:08.384Z,30.40
2019-04-10T01:48:39.801Z,29.27
2019-04-10T01:51:10.814Z,27.63
2019-04-10T01:53:41.972Z,30.80
2019-04-10T01:56:24.795Z,48.57
2019-04-10T01:58:49.633Z,31.00
2019-04-10T02:01:28.271Z,33.80
2019-04-10T02:04:00.560Z,30.73
2019-04-10T02:06:33.611Z,30.63
2019-04-10T02:09:05.288Z,32.90
2019-04-10T02:11:38.351Z,49.83
2019-04-10T02:14:08.944Z,30.47
2019-04-10T02:16:39.519Z,30.27
2019-04-10T02:19:16.438Z,29.73
2019-04-10T02:21:48.409Z,32.57
2019-04-10T02:24:19.224Z,52.27
2019-04-10T02:26:49.852Z,33.97
2019-04-10T02:29:21.597Z,30.27
2019-04-10T02:31:53.373Z,33.00
2019-04-10T02:34:28.880Z,37.77
2019-04-10T02:37:06.793Z,48.73
2019-04-10T02:39:42.413Z,32.33
2019-04-10T02:42:10.176Z,32.10
2019-04-10T02:44:41.656Z,53.73
2019-04-10T02:47:13.029Z,35.97
2019-04-10T02:49:47.101Z,35.20
2019-04-10T02:52:20.392Z,35.83
2019-04-10T02:54:51.285Z,36.33
2019-04-10T02:57:27.632Z,32.63
2019-04-10T03:00:03.715Z,55.73
2019-04-10T03:02:33.693Z,36.90
2019-04-10T03:05:07.288Z,41.10
2019-04-10T03:07:40.375Z,38.53
2019-04-10T03:10:23.253Z,34.67
2019-04-10T03:12:46.276Z,65.23
2019-04-10T03:15:25.190Z,37.70
2019-04-10T03:18:04.176Z,60.13
2019-04-10T03:20:38.485Z,39.27
2019-04-10T03:23:12.021Z,34.43
2019-04-10T03:25:45.458Z,38.40
2019-04-10T03:28:16.671Z,64.20
2019-04-10T03:30:49.406Z,40.23
2019-04-10T03:33:33.769Z,34.77
2019-04-10T03:36:05.271Z,35.43
2019-04-10T03:38:53.492Z,60.93
2019-04-10T03:41:12.241Z,41.37
2019-04-10T03:43:43.814Z,34.23
2019-04-10T03:46:21.862Z,61.47
2019-04-10T03:48:55.633Z,44.97
2019-04-10T03:51:26.479Z,38.70
2019-04-10T03:53:57.061Z,41.67
2019-04-10T03:56:27.957Z,39.70
2019-04-10T03:59:02.155Z,42.67
2019-04-10T04:01:35.670Z,45.97
2019-04-10T04:04:07.051Z,39.80
2019-04-10T04:06:39.849Z,41.07
2019-04-10T04:09:13.550Z,38.67
2019-04-10T04:11:44.667Z,43.03
2019-04-10T04:14:17.448Z,44.03
2019-04-10T04:16:49.130Z,46.67
2019-04-10T04:19:20.123Z,47.37
2019-04-10T04:22:01.093Z,42.30
2019-04-10T04:24:54.279Z,43.43
2019-04-10T04:27:53.808Z,38.37
2019-04-10T04:30:31.987Z,39.00
2019-04-10T04:33:04.799Z,37.83
2019-04-10T04:35:35.059Z,41.23
2019-04-10T04:38:07.088Z,37.90
2019-04-10T04:40:44.239Z,42.27
2019-04-10T04:43:14.978Z,68.77
2019-04-10T04:45:48.212Z,36.40
2019-04-10T04:48:22.132Z,63.07
2019-04-10T04:51:03.932Z,41.90
2019-04-10T04:53:37.977Z,68.40
2019-04-10T04:56:11.416Z,44.30
2019-04-10T04:58:47.539Z,43.13
2019-04-10T05:01:21.073Z,45.10
2019-04-10T05:03:52.599Z,41.37
2019-04-10T05:06:25.024Z,40.17
2019-04-10T05:08:56.850Z,57.27
2019-04-10T05:11:38.425Z,40.37
2019-04-10T05:14:13.885Z,36.43
2019-04-10T05:16:46.206Z,58.97
2019-04-10T05:19:17.407Z,40.80
2019-04-10T05:21:48.233Z,41.67
2019-04-10T05:24:22.263Z,42.30
2019-04-10T05:26:53.630Z,38.53
2019-04-10T05:29:25.067Z,39.87
2019-04-10T05:31:58.787Z,38.77
2019-04-10T05:34:30.669Z,60.67
2019-04-10T05:37:03.141Z,35.27
2019-04-10T05:39:41.347Z,31.37
2019-04-10T05:42:08.467Z,34.47
2019-04-10T05:44:40.190Z,38.33
2019-04-10T05:47:19.223Z,34.13
2019-04-10T05:49:50.129Z,32.53
2019-04-10T05:52:23.522Z,36.03
2019-04-10T05:54:59.947Z,53.07
2019-04-10T05:57:39.059Z,36.83
2019-04-10T06:00:10.954Z,32.07
2019-04-10T06:02:41.862Z,33.90
2019-04-10T06:05:16.265Z,35.17
2019-04-10T06:07:47.549Z,40.03
2019-04-10T06:10:19.761Z,35.70
2019-04-10T06:12:52.896Z,33.53
2019-04-10T06:15:23.197Z,35.30
2019-04-10T06:17:54.588Z,33.77
2019-04-10T06:20:25.191Z,54.50
2019-04-10T06:23:01.410Z,33.70
2019-04-10T06:25:34.059Z,35.37
2019-04-10T06:28:05.252Z,36.47
2019-04-10T06:30:36.343Z,35.37
2019-04-10T06:33:12.310Z,33.87
2019-04-10T06:35:46.944Z,52.37
2019-04-10T06:38:21.030Z,33.80
2019-04-10T06:40:52.360Z,33.47
2019-04-10T06:43:23.716Z,30.60
2019-04-10T06:45:57.850Z,31.20
2019-04-10T06:48:28.511Z,35.70
2019-04-10T06:50:59.843Z,32.40
2019-04-10T06:53:33.259Z,29.93
2019-04-10T06:56:04.882Z,30.47
2019-04-10T06:58:36.031Z,28.07
2019-04-10T07:01:08.276Z,29.60
2019-04-10T07:03:52.787Z,29.00
2019-04-10T07:06:20.792Z,33.73
2019-04-10T07:08:53.348Z,30.60
2019-04-10T07:11:30.445Z,34.77
2019-04-10T07:14:04.911Z,28.77
2019-04-10T07:16:42.209Z,25.53
2019-04-10T07:19:17.781Z,25.00
2019-04-10T07:22:09.854Z,27.53
2019-04-10T07:24:42.500Z,30.07
2019-04-10T07:27:16.052Z,30.53
2019-04-10T07:29:53.898Z,27.37
2019-04-10T07:32:33.914Z,30.23
2019-04-10T07:35:05.327Z,24.63
2019-04-10T07:37:44.446Z,24.20
2019-04-10T07:40:18.638Z,23.77
2019-04-10T07:43:07.338Z,20.17
2019-04-10T07:45:39.944Z,21.43
2019-04-10T07:48:18.458Z,25.63
2019-04-10T07:50:55.869Z,33.03
2019-04-10T07:53:30.892Z,26.13
2019-04-10T07:56:13.557Z,22.97
2019-04-10T07:58:51.663Z,18.07
2019-04-10T08:01:27.360Z,19.63
2019-04-10T08:04:01.867Z,29.83
2019-04-10T08:06:33.239Z,18.93
2019-04-10T08:09:10.543Z,18.80
2019-04-10T08:11:42.936Z,18.90
2019-04-10T08:14:14.840Z,24.37
2019-04-10T08:16:57.748Z,20.33
2019-04-10T08:19:32.829Z,17.27
2019-04-10T08:22:06.607Z,17.63
2019-04-10T08:24:49.818Z,16.83
2019-04-10T08:27:19.800Z,26.47
2019-04-10T08:29:54.881Z,14.13
2019-04-10T08:32:27.643Z,14.03
2019-04-10T08:35:11.200Z,13.90
2019-04-10T08:37:50.712Z,13.97
2019-04-10T08:40:52.304Z,12.47
2019-04-10T08:43:43.627Z,16.43
2019-04-10T08:46:33.659Z,15.13
2019-04-10T08:49:08.305Z,12.50
2019-04-10T08:51:41.723Z,12.83
2019-04-10T08:54:14.644Z,11.37
2019-04-10T08:56:45.343Z,13.47
2019-04-10T08:59:23.829Z,10.53
2019-04-10T09:01:56.084Z,11.77
2019-04-10T09:04:29.237Z,11.90
2019-04-10T09:07:04.278Z,9.80
2019-04-10T09:09:39.451Z,17.83
2019-04-10T09:12:31.666Z,9.67
2019-04-10T09:15:01.575Z,9.23
2019-04-10T09:17:39.735Z,11.90
2019-04-10T09:20:18.539Z,9.53
2019-04-10T09:23:13.456Z,8.40
2019-04-10T09:25:28.519Z,9.37
2019-04-10T09:28:40.657Z,10.13
2019-04-10T09:31:20.501Z,14.40
2019-04-10T09:36:54.162Z,10.67
2019-04-10T09:39:39.139Z,9.07
2019-04-10T09:42:19.405Z,13.57
2019-04-10T09:44:52.819Z,8.93
2019-04-10T09:47:24.806Z,13.20
2019-04-10T09:49:57.966Z,10.40
2019-04-10T09:52:28.583Z,8.13
2019-04-10T09:54:59.652Z,9.50
2019-04-10T09:57:30.562Z,11.20
2019-04-10T10:00:05.417Z,7.87
2019-04-10T10:03:00.111Z,9.90
2019-04-10T10:05:31.099Z,10.03
2019-04-10T10:08:11.577Z,10.53
2019-04-10T10:10:50.268Z,11.23
2019-04-10T10:13:31.853Z,13.57
2019-04-10T10:16:23.983Z,9.47
2019-04-10T10:19:07.857Z,9.07
2019-04-10T10:21:35.067Z,10.10
2019-04-10T10:24:10.712Z,9.57
2019-04-10T10:26:46.061Z,9.73
2019-04-10T10:29:21.782Z,10.07
2019-04-10T10:32:13.706Z,8.27
2019-04-10T10:34:50.425Z,13.60
2019-04-10T10:37:22.171Z,11.67
2019-04-10T10:39:57.375Z,9.07
2019-04-10T10:42:38.481Z,13.93
2019-04-10T10:45:12.457Z,7.73
2019-04-10T10:47:44.958Z,9.57
2019-04-10T10:50:22.103Z,8.73
2019-04-10T10:52:57.988Z,8.00
2019-04-10T10:55:29.618Z,8.90
2019-04-10T10:58:03.732Z,10.77
2019-04-10T11:00:35.491Z,10.00
2019-04-10T11:03:18.187Z,15.00
2019-04-10T11:05:50.723Z,11.47
2019-04-10T11:08:29.352Z,9.87
2019-04-10T11:11:02.791Z,7.47
2019-04-10T11:13:39.589Z,8.43
2019-04-10T11:16:13.070Z,8.80
2019-04-10T11:18:51.085Z,7.07
2019-04-10T11:21:24.821Z,8.80
2019-04-10T11:24:04.672Z,9.70
2019-04-10T11:26:38.406Z,10.23
2019-04-10T11:29:11.874Z,13.13
2019-04-10T11:31:42.846Z,10.47
2019-04-10T11:34:16.580Z,9.70
2019-04-10T11:37:15.617Z,9.13
2019-04-10T11:39:31.651Z,7.73
2019-04-10T11:41:57.832Z,11.27
2019-04-10T11:44:34.742Z,11.57
2019-04-10T11:47:10.486Z,9.13
2019-04-10T11:49:43.415Z,9.07
2019-04-10T11:52:19.017Z,9.37
2019-04-10T11:54:49.170Z,8.60
2019-04-10T11:57:22.884Z,13.50
2019-04-10T12:00:06.579Z,7.53
2019-04-10T12:02:39.648Z,10.73
2019-04-10T12:05:20.083Z,10.17
2019-04-10T12:08:21.075Z,13.07
2019-04-10T12:13:20.396Z,9.33
2019-04-10T12:16:51.565Z,9.07
2019-04-10T12:19:25.029Z,8.47
2019-04-10T12:21:56.077Z,7.17
2019-04-10T12:24:26.928Z,9.00
2019-04-10T12:27:07.141Z,9.03
2019-04-10T12:29:42.532Z,7.50
2019-04-10T12:32:13.074Z,7.57
2019-04-10T12:35:02.142Z,8.93
2019-04-10T12:37:39.631Z,17.43
2019-04-10T12:40:11.832Z,8.67
2019-04-10T12:42:44.205Z,7.83
2019-04-10T12:45:16.275Z,9.10
2019-04-10T12:47:50.257Z,9.10
2019-04-10T12:50:22.860Z,10.20
2019-04-10T12:52:54.738Z,7.43
2019-04-10T12:55:34.611Z,7.83
2019-04-10T12:58:15.880Z,9.80
2019-04-10T13:00:54.059Z,7.97
2019-04-10T13:03:31.357Z,8.30
2019-04-10T13:06:33.905Z,10.27
2019-04-10T13:10:02.555Z,10.47
2019-04-10T13:12:47.232Z,9.20
2019-04-10T13:15:27.660Z,11.80
2019-04-10T13:18:23.130Z,9.30
2019-04-10T13:20:57.976Z,7.50
2019-04-10T13:23:33.147Z,7.20
2019-04-10T13:26:24.238Z,12.07
2019-04-10T13:28:58.025Z,11.10
2019-04-10T13:31:33.109Z,12.40
2019-04-10T13:34:15.303Z,8.53
2019-04-10T13:37:24.999Z,10.47
2019-04-10T13:39:59.058Z,10.47
2019-04-10T13:42:31.551Z,8.20
2019-04-10T13:45:02.864Z,6.87
2019-04-10T13:47:38.625Z,7.90
2019-04-10T13:50:10.557Z,10.73
2019-04-10T13:52:52.617Z,8.57
2019-04-10T13:55:24.364Z,8.80
2019-04-10T13:58:04.716Z,10.80
2019-04-10T14:00:40.029Z,10.57
2019-04-10T14:03:16.356Z,8.93
2019-04-10T14:05:52.883Z,8.70
2019-04-10T14:08:58.651Z,7.17
2019-04-10T14:11:17.439Z,9.13
2019-04-10T14:13:46.233Z,10.17
2019-04-10T14:16:20.863Z,9.57
2019-04-10T14:18:52.892Z,8.33
2019-04-10T14:21:27.278Z,8.33
2019-04-10T14:24:04.073Z,7.70
2019-04-10T14:26:52.199Z,8.30
2019-04-10T14:29:26.935Z,7.33
2019-04-10T14:32:03.211Z,6.17
2019-04-10T14:34:42.971Z,8.00
2019-04-10T14:37:21.199Z,8.73
2019-04-10T14:39:57.757Z,6.67
2019-04-10T14:42:32.783Z,6.50
2019-04-10T14:45:13.161Z,7.53
2019-04-10T14:47:47.644Z,7.23
2019-04-10T14:50:19.839Z,11.00
2019-04-10T14:52:53.843Z,7.73
2019-04-10T14:55:27.166Z,10.67
2019-04-10T14:57:59.146Z,7.93
2019-04-10T15:00:53.229Z,12.13
2019-04-10T15:03:28.577Z,8.47
2019-04-10T15:06:09.154Z,11.43
2019-04-10T15:08:48.795Z,7.80
2019-04-10T15:11:24.772Z,8.97
2019-04-10T15:13:55.875Z,8.33
2019-04-10T15:16:27.393Z,6.73
2019-04-10T15:19:00.301Z,10.10
2019-04-10T15:21:34.671Z,8.67
2019-04-10T15:24:07.013Z,6.83
2019-04-10T15:26:50.897Z,8.00
2019-04-10T15:29:47.591Z,6.30
2019-04-10T15:32:25.271Z,8.23
2019-04-10T15:35:00.439Z,10.27
2019-04-10T15:37:55.758Z,6.83
2019-04-10T15:40:42.015Z,8.17
2019-04-10T15:43:12.612Z,6.27
2019-04-10T15:45:46.328Z,8.60
2019-04-10T15:48:20.878Z,6.50
2019-04-10T15:50:54.244Z,7.23
2019-04-10T15:53:27.071Z,8.47
2019-04-10T15:56:01.296Z,7.43
2019-04-10T15:58:37.473Z,8.53
2019-04-10T16:01:18.099Z,8.33
2019-04-10T16:03:52.754Z,11.80
2019-04-10T16:06:25.118Z,7.43
2019-04-10T16:08:57.122Z,10.57
2019-04-10T16:11:42.045Z,10.80
2019-04-10T16:14:23.194Z,6.40
2019-04-10T16:17:22.900Z,14.87
2019-04-10T16:20:06.118Z,9.53
2019-04-10T16:22:46.752Z,6.47
2019-04-10T16:25:30.333Z,9.23
2019-04-10T16:28:06.262Z,9.27
2019-04-10T16:30:37.253Z,6.83
2019-04-10T16:33:11.189Z,9.70
2019-04-10T16:35:46.121Z,7.77
2019-04-10T16:38:18.869Z,7.13
2019-04-10T16:40:49.998Z,8.27
2019-04-10T16:43:22.315Z,6.87
2019-04-10T16:45:53.065Z,7.57
2019-04-10T16:48:34.249Z,8.20
2019-04-10T16:51:08.029Z,6.47
2019-04-10T16:53:39.488Z,6.47
2019-04-10T16:56:11.522Z,8.17
2019-04-10T16:58:42.989Z,6.20
2019-04-10T17:01:20.628Z,5.73
2019-04-10T17:03:53.034Z,6.43
2019-04-10T17:06:28.855Z,6.37
2019-04-10T17:09:02.637Z,6.50
2019-04-10T17:11:45.292Z,8.63
2019-04-10T17:14:23.812Z,7.33
2019-04-10T17:17:00.495Z,8.30
2019-04-10T17:19:46.612Z,9.17
2019-04-10T17:22:14.977Z,8.00
2019-04-10T17:25:20.160Z,8.60
2019-04-10T17:28:25.412Z,10.43
2019-04-10T17:31:36.213Z,15.57
2019-04-10T17:34:11.343Z,8.80
2019-04-10T17:37:01.208Z,20.20
2019-04-10T17:40:00.086Z,16.97
2019-04-10T17:42:44.180Z,30.43
2019-04-10T17:45:42.797Z,14.43
2019-04-10T17:48:05.582Z,14.97
2019-04-10T17:50:45.674Z,8.43
2019-04-10T17:53:25.197Z,7.67
2019-04-10T17:56:34.146Z,24.10
2019-04-10T17:59:16.798Z,35.03
2019-04-10T18:01:53.721Z,21.33
2019-04-10T18:04:27.696Z,9.87
2019-04-10T18:07:03.925Z,10.13
2019-04-10T18:09:36.823Z,15.37
2019-04-10T18:12:10.671Z,9.83
2019-04-10T18:14:53.892Z,9.00
2019-04-10T18:17:35.433Z,10.37
2019-04-10T18:20:16.367Z,9.87
2019-04-10T18:22:55.843Z,8.27
2019-04-10T18:25:31.181Z,9.20
2019-04-10T18:28:11.546Z,9.67
2019-04-10T18:30:54.999Z,8.90
2019-04-10T18:33:31.031Z,11.40
2019-04-10T18:36:03.166Z,8.27
2019-04-10T18:38:37.749Z,10.80
2019-04-10T18:41:11.748Z,9.53
2019-04-10T18:43:44.675Z,8.90
2019-04-10T18:46:23.889Z,10.60
2019-04-10T18:48:58.997Z,11.23
2019-04-10T18:51:40.694Z,8.33
2019-04-10T18:54:16.590Z,8.90
2019-04-10T18:57:11.700Z,7.80
2019-04-10T19:00:15.762Z,10.63
2019-04-10T19:03:13.022Z,12.63
2019-04-10T19:05:46.361Z,8.73
2019-04-10T19:08:21.855Z,9.47
2019-04-10T19:11:07.650Z,9.33
2019-04-10T19:13:25.246Z,7.43
2019-04-10T19:15:57.262Z,8.27
2019-04-10T19:18:29.890Z,8.73
2019-04-10T19:21:00.613Z,9.77
2019-04-10T19:23:33.084Z,9.40
2019-04-10T19:26:05.509Z,10.47
2019-04-10T19:28:41.889Z,9.43
2019-04-10T19:31:19.467Z,11.37
2019-04-10T19:33:49.237Z,10.33
2019-04-10T19:36:34.581Z,14.23
2019-04-10T19:39:07.908Z,8.07
2019-04-10T19:41:41.454Z,8.50
2019-04-10T19:44:14.982Z,8.77
2019-04-10T19:46:45.978Z,11.23
2019-04-10T19:49:20.375Z,10.00
2019-04-10T19:51:53.473Z,9.03
2019-04-10T19:54:24.165Z,9.53
2019-04-10T19:56:59.779Z,7.50
2019-04-10T20:00:22.137Z,12.63
2019-04-10T20:03:07.987Z,9.10
2019-04-10T20:05:49.463Z,7.93
2019-04-10T20:08:44.025Z,7.50
2019-04-10T20:11:35.903Z,8.97
2019-04-10T20:14:00.848Z,10.07
2019-04-10T20:16:57.794Z,7.73
2019-04-10T20:20:23.572Z,7.83
2019-04-10T20:23:02.665Z,15.03
2019-04-10T20:25:39.214Z,8.83
2019-04-10T20:28:24.680Z,8.73
2019-04-10T20:31:02.340Z,8.33
2019-04-10T20:33:39.204Z,8.87
2019-04-10T20:36:17.222Z,8.10
2019-04-10T20:39:25.350Z,8.23
2019-04-10T20:42:48.808Z,8.13
2019-04-10T20:46:30.479Z,6.93
2019-04-10T20:49:12.101Z,7.80
2019-04-10T20:52:13.522Z,7.33
2019-04-10T20:55:11.251Z,7.00
2019-04-10T20:58:29.475Z,7.63
2019-04-10T21:01:41.576Z,12.10
2019-04-10T21:07:44.138Z,7.17
2019-04-10T21:10:34.950Z,7.43
2019-04-10T21:13:19.019Z,7.87
2019-04-10T21:16:56.379Z,7.17
2019-04-10T21:19:40.878Z,8.00
2019-04-10T21:22:30.982Z,8.50
2019-04-10T21:28:50.277Z,8.90
2019-04-10T21:31:50.539Z,8.47
2019-04-10T21:35:37.108Z,9.83
2019-04-10T21:38:38.806Z,9.60
2019-04-10T21:41:53.566Z,9.00
2019-04-10T21:45:11.017Z,8.90
2019-04-10T21:47:55.993Z,9.70
2019-04-10T21:50:47.396Z,10.43
2019-04-10T21:53:22.263Z,9.83
2019-04-10T21:56:10.436Z,7.20
2019-04-10T21:58:42.582Z,6.67
2019-04-10T22:01:28.330Z,7.80
2019-04-10T22:04:32.889Z,7.77
2019-04-10T22:11:34.296Z,7.30
2019-04-10T22:14:15.610Z,6.60
2019-04-10T22:16:50.541Z,8.53
2019-04-10T22:19:32.270Z,8.47
2019-04-10T22:22:15.213Z,8.10
2019-04-10T22:24:54.736Z,8.63
2019-04-10T22:27:31.625Z,11.80
2019-04-10T22:30:08.353Z,9.73
2019-04-10T22:32:45.578Z,8.27
2019-04-10T22:35:17.472Z,7.60
2019-04-10T22:37:57.316Z,10.20
2019-04-10T22:40:29.140Z,9.47
2019-04-10T22:43:03.424Z,11.70
2019-04-10T22:45:34.093Z,8.87
2019-04-10T22:48:04.581Z,8.57
2019-04-10T22:50:41.492Z,10.00
2019-04-10T22:53:23.426Z,9.80
2019-04-10T22:55:58.366Z,10.60
2019-04-10T22:58:31.550Z,9.17
2019-04-10T23:01:02.792Z,10.50
2019-04-10T23:03:45.228Z,7.33
2019-04-10T23:06:24.922Z,9.57
2019-04-10T23:09:00.248Z,10.67
2019-04-10T23:11:52.322Z,7.70
2019-04-10T23:14:36.591Z,14.43
2019-04-10T23:17:10.728Z,16.30
2019-04-10T23:19:42.769Z,14.13
2019-04-10T23:22:15.235Z,10.07
2019-04-10T23:24:47.703Z,8.10
2019-04-10T23:27:19.897Z,11.57
2019-04-10T23:29:52.660Z,9.23
2019-04-10T23:32:27.023Z,10.07
2019-04-10T23:35:01.465Z,9.17
2019-04-10T23:37:33.050Z,13.57
2019-04-10T23:40:08.591Z,8.97
2019-04-10T23:42:41.368Z,8.93
2019-04-10T23:45:15.560Z,9.50
2019-04-10T23:47:48.697Z,8.90
2019-04-10T23:50:21.875Z,10.70
2019-04-10T23:52:52.906Z,9.90
2019-04-10T23:55:24.618Z,12.00
2019-04-10T23:57:58.431Z,10.97
